Panagiotis II — SY5614 — position and weather

sailwx.info

Track history (hours):
 
Tides and Currents Weather Stations Pressure Air Temp Water Temp Dewpoint Dewpoint Depression Visibility Wind Speed Wind Dir Waves Ship Positions

Panagiotis II

Last reported at 2017-Sep-26 22:54 UTC. Time now 2017-Oct-16 22:43 UTC.
Position N 39°54' E 024°01'.
Warning: this ship's position is 19 days out of date.

Length 32 m; draft 3.8 m.

Type: Fishing. MMSI: 240259000.

Date/timePositionNaut miles runAvg speedWind from/ knotsBaromVisibWave heightAir tempDewpointWater temp
2017-Sep-26 22:54N 39°54' E 024°01'5 9.4
2017-Sep-26 22:21N 39°56' E 024°07'4 9.5
2017-Sep-26 21:54N 39°59' E 024°12'4 9.9
2017-Sep-26 21:30N 40°01' E 024°16'21 9.7
2017-Sep-26 19:23N 40°13' E 024°38'13 9.4
2017-Sep-26 18:00N 40°20' E 024°52'6 9.3
2017-Sep-26 17:21N 40°23' E 024°59'3 9.2
2017-Sep-26 17:00N 40°25' E 025°02'5 9.5
2017-Sep-26 16:30N 40°28' E 025°08'21 1.5
2017-Sep-26 01:57N 40°35' E 025°34'3 7.5
2017-Sep-26 01:30N 40°32' E 025°31'4 4.1
2017-Sep-26 00:26N 40°28' E 025°28'0 0.0
2017-Sep-25 23:20N 40°28' E 025°28'0 0.0
2017-Sep-25 22:55N 40°28' E 025°28'0 0.0
2017-Sep-25 21:50N 40°28' E 025°28'0 0.0
2017-Sep-25 21:31N 40°28' E 025°28'0 0.0
2017-Sep-25 20:51N 40°28' E 025°28'0 0.0
2017-Sep-25 19:38N 40°28' E 025°28'  
Track history (hours):
 
Tides and Currents Weather Stations Pressure Air Temp Water Temp Dewpoint Dewpoint Depression Visibility Wind Speed Wind Dir Waves Ship Positions

Panagiotis II

Last reported at 2017-Sep-26 22:54 UTC. Time now 2017-Oct-16 22:43 UTC.
Position N 39°54' E 024°01'.
Warning: this ship's position is 19 days out of date.

Length 32 m; draft 3.8 m.

Type: Fishing. MMSI: 240259000.

Date/timePositionNaut miles runAvg speedWind from/ knotsBaromVisibWave heightAir tempDewpointWater temp
2017-Sep-26 22:54N 39°54' E 024°01'5 9.4
2017-Sep-26 22:21N 39°56' E 024°07'4 9.5
2017-Sep-26 21:54N 39°59' E 024°12'4 9.9
2017-Sep-26 21:30N 40°01' E 024°16'21 9.7
2017-Sep-26 19:23N 40°13' E 024°38'13 9.4
2017-Sep-26 18:00N 40°20' E 024°52'6 9.3
2017-Sep-26 17:21N 40°23' E 024°59'3 9.2
2017-Sep-26 17:00N 40°25' E 025°02'5 9.5
2017-Sep-26 16:30N 40°28' E 025°08'21 1.5
2017-Sep-26 01:57N 40°35' E 025°34'3 7.5
2017-Sep-26 01:30N 40°32' E 025°31'4 4.1
2017-Sep-26 00:26N 40°28' E 025°28'0 0.0
2017-Sep-25 23:20N 40°28' E 025°28'0 0.0
2017-Sep-25 22:55N 40°28' E 025°28'0 0.0
2017-Sep-25 21:50N 40°28' E 025°28'0 0.0
2017-Sep-25 21:31N 40°28' E 025°28'0 0.0
2017-Sep-25 20:51N 40°28' E 025°28'0 0.0
2017-Sep-25 19:38N 40°28' E 025°28'  

Dump ship's entire track history